createdAt,value
2017-09-24T00:00:22.485Z,9.03
2017-09-24T00:02:51.905Z,9.50
2017-09-24T00:05:21.296Z,9.43
2017-09-24T00:07:50.840Z,9.50
2017-09-24T00:10:20.299Z,8.83
2017-09-24T00:12:49.757Z,8.47
2017-09-24T00:15:19.833Z,9.87
2017-09-24T00:17:49.282Z,9.63
2017-09-24T00:20:19.496Z,9.07
2017-09-24T00:22:48.927Z,8.50
2017-09-24T00:25:24.622Z,9.57
2017-09-24T00:27:54.127Z,9.30
2017-09-24T00:30:23.535Z,9.10
2017-09-24T00:32:53.039Z,9.50
2017-09-24T00:35:22.737Z,9.00
2017-09-24T00:37:52.215Z,9.90
2017-09-24T00:40:21.748Z,8.90
2017-09-24T00:42:57.833Z,9.67
2017-09-24T00:45:33.310Z,9.77
2017-09-24T00:48:08.851Z,9.90
2017-09-24T00:50:40.078Z,8.93
2017-09-24T00:53:22.527Z,9.93
2017-09-24T00:55:52.042Z,9.63
2017-09-24T00:58:25.397Z,9.53
2017-09-24T01:00:54.874Z,8.80
2017-09-24T01:03:38.187Z,8.93
2017-09-24T01:06:08.866Z,8.93
2017-09-24T01:08:44.355Z,8.63
2017-09-24T01:11:13.815Z,10.43
2017-09-24T01:13:49.409Z,9.20
2017-09-24T01:16:21.081Z,9.07
2017-09-24T01:18:51.707Z,9.37
2017-09-24T01:21:21.212Z,8.80
2017-09-24T01:23:50.669Z,8.83
2017-09-24T01:26:20.174Z,9.53
2017-09-24T01:28:49.871Z,8.97
2017-09-24T01:31:19.358Z,9.80
2017-09-24T01:33:48.801Z,9.50
2017-09-24T01:36:18.447Z,10.70
2017-09-24T01:38:48.012Z,9.57
2017-09-24T01:41:17.514Z,9.40
2017-09-24T01:43:47.339Z,9.30
2017-09-24T01:46:16.778Z,9.33
2017-09-24T01:48:46.205Z,10.23
2017-09-24T01:51:15.711Z,9.20
2017-09-24T01:53:45.342Z,9.97
2017-09-24T01:56:14.810Z,10.40
2017-09-24T01:58:44.284Z,9.87
2017-09-24T02:01:13.711Z,10.67
2017-09-24T02:03:44.407Z,10.67
2017-09-24T02:06:14.029Z,9.77
2017-09-24T02:08:43.659Z,10.30
2017-09-24T02:11:13.226Z,10.30
2017-09-24T02:13:42.924Z,9.30
2017-09-24T02:16:12.360Z,9.67
2017-09-24T02:18:41.830Z,10.10
2017-09-24T02:21:12.032Z,9.83
2017-09-24T02:23:41.624Z,10.30
2017-09-24T02:26:11.815Z,10.10
2017-09-24T02:28:41.221Z,10.70
2017-09-24T02:31:11.045Z,9.70
2017-09-24T02:33:40.613Z,9.73
2017-09-24T02:36:10.246Z,10.30
2017-09-24T02:38:46.347Z,10.60
2017-09-24T02:41:15.816Z,10.50
2017-09-24T02:43:45.248Z,11.10
2017-09-24T02:46:14.836Z,11.30
2017-09-24T02:48:48.611Z,12.03
2017-09-24T02:51:18.066Z,10.63
2017-09-24T02:53:47.501Z,11.50
2017-09-24T02:56:16.923Z,11.50
2017-09-24T02:58:53.429Z,10.30
2017-09-24T03:01:22.861Z,10.23
2017-09-24T03:03:52.304Z,10.33
2017-09-24T03:06:21.708Z,9.40
2017-09-24T03:08:51.097Z,8.97
2017-09-24T03:11:20.531Z,8.80
2017-09-24T03:13:50.666Z,9.40
2017-09-24T03:16:20.131Z,9.53
2017-09-24T03:18:49.553Z,9.60
2017-09-24T03:21:18.986Z,10.27
2017-09-24T03:23:50.296Z,8.30
2017-09-24T03:26:19.773Z,9.27
2017-09-24T03:28:49.203Z,9.27
2017-09-24T03:31:18.607Z,9.63
2017-09-24T03:33:56.278Z,9.50
2017-09-24T03:36:33.556Z,9.50
2017-09-24T03:39:03.978Z,9.30
2017-09-24T03:41:33.833Z,9.30
2017-09-24T03:44:03.231Z,10.10
2017-09-24T03:46:32.691Z,10.73
2017-09-24T03:49:02.098Z,10.37
2017-09-24T03:51:31.497Z,11.43
2017-09-24T03:54:00.906Z,10.90
2017-09-24T03:56:30.444Z,11.77
2017-09-24T03:58:59.890Z,11.20
2017-09-24T04:01:34.706Z,11.43
2017-09-24T04:04:04.121Z,10.53
2017-09-24T04:06:39.782Z,11.50
2017-09-24T04:09:09.240Z,11.07
2017-09-24T04:11:38.681Z,11.50
2017-09-24T04:14:08.116Z,10.37
2017-09-24T04:16:50.777Z,11.00
2017-09-24T04:19:27.953Z,11.53
2017-09-24T04:21:57.411Z,12.13
2017-09-24T04:24:26.822Z,12.23
2017-09-24T04:26:56.277Z,13.30
2017-09-24T04:29:25.741Z,12.23
2017-09-24T04:31:55.180Z,11.53
2017-09-24T04:34:24.594Z,13.27
2017-09-24T04:36:54.015Z,13.27
2017-09-24T04:39:23.437Z,13.27
2017-09-24T04:42:00.159Z,13.00
2017-09-24T04:44:29.612Z,13.33
2017-09-24T04:47:08.468Z,13.43
2017-09-24T04:49:37.893Z,14.93
2017-09-24T04:52:15.212Z,14.07
2017-09-24T04:54:44.696Z,14.27
2017-09-24T04:57:20.675Z,13.80
2017-09-24T04:59:50.112Z,11.77
2017-09-24T05:02:32.463Z,13.87
2017-09-24T05:05:01.871Z,12.77
2017-09-24T05:07:31.326Z,13.00
2017-09-24T05:10:01.100Z,13.13
2017-09-24T05:12:30.510Z,12.40
2017-09-24T05:14:59.958Z,12.93
2017-09-24T05:17:29.473Z,13.83
2017-09-24T05:19:58.941Z,14.63
2017-09-24T05:22:28.354Z,12.90
2017-09-24T05:24:57.881Z,15.73
2017-09-24T05:27:27.329Z,13.70
2017-09-24T05:29:56.733Z,13.83
2017-09-24T05:32:27.262Z,14.37
2017-09-24T05:35:03.671Z,14.60
2017-09-24T05:37:33.107Z,14.33
2017-09-24T05:40:02.517Z,14.60
2017-09-24T05:42:31.982Z,14.80
2017-09-24T05:45:01.461Z,13.90
2017-09-24T05:47:30.872Z,14.20
2017-09-24T05:50:00.353Z,13.90
2017-09-24T05:52:29.811Z,14.43
2017-09-24T05:54:59.277Z,15.87
2017-09-24T05:57:28.727Z,13.90
2017-09-24T05:59:58.148Z,15.17
2017-09-24T06:02:27.656Z,14.80
2017-09-24T06:04:57.067Z,13.93
2017-09-24T06:07:41.290Z,13.73
2017-09-24T06:10:10.728Z,12.87
2017-09-24T06:12:47.157Z,13.97
2017-09-24T06:15:16.599Z,15.23
2017-09-24T06:17:46.012Z,15.33
2017-09-24T06:20:15.484Z,12.80
2017-09-24T06:22:45.613Z,13.37
2017-09-24T06:25:15.072Z,13.07
2017-09-24T06:27:51.725Z,12.80
2017-09-24T06:30:21.233Z,12.67
2017-09-24T06:32:50.681Z,13.47
2017-09-24T06:35:26.469Z,11.63
2017-09-24T06:37:55.974Z,11.40
2017-09-24T06:40:25.455Z,11.40
2017-09-24T06:43:01.936Z,11.50
2017-09-24T06:45:31.383Z,10.90
2017-09-24T06:48:00.879Z,10.50
2017-09-24T06:50:30.354Z,9.93
2017-09-24T06:52:59.793Z,9.43
2017-09-24T06:55:29.244Z,10.10
2017-09-24T06:57:59.352Z,9.93
2017-09-24T07:00:29.009Z,8.87
2017-09-24T07:02:58.507Z,9.60
2017-09-24T07:05:28.004Z,9.50
2017-09-24T07:07:57.584Z,8.73
2017-09-24T07:10:27.154Z,8.43
2017-09-24T07:13:03.128Z,9.37
2017-09-24T07:15:32.601Z,8.40
2017-09-24T07:18:09.046Z,8.17
2017-09-24T07:20:38.498Z,8.80
2017-09-24T07:23:07.984Z,8.40
2017-09-24T07:25:37.652Z,7.30
2017-09-24T07:28:25.789Z,7.87
2017-09-24T07:30:55.436Z,8.60
2017-09-24T07:33:24.877Z,7.30
2017-09-24T07:35:54.916Z,8.53
2017-09-24T07:38:32.107Z,8.57
2017-09-24T07:41:01.552Z,7.83
2017-09-24T07:43:31.072Z,8.07
2017-09-24T07:46:00.505Z,7.60
2017-09-24T07:48:29.978Z,7.30
2017-09-24T07:50:59.975Z,7.63
2017-09-24T07:53:29.453Z,7.77
2017-09-24T07:56:05.769Z,7.80
2017-09-24T07:58:35.216Z,8.50
2017-09-24T08:01:04.656Z,7.80
2017-09-24T08:03:35.450Z,6.93
2017-09-24T08:06:05.053Z,7.60
2017-09-24T08:08:34.570Z,7.80
2017-09-24T08:11:04.058Z,7.47
2017-09-24T08:13:33.689Z,7.57
2017-09-24T08:16:03.147Z,7.20
2017-09-24T08:18:32.561Z,7.60
2017-09-24T08:21:02.015Z,7.30
2017-09-24T08:23:31.457Z,7.53
2017-09-24T08:26:00.870Z,7.17
2017-09-24T08:28:30.378Z,7.33
2017-09-24T08:30:59.810Z,6.80
2017-09-24T08:33:41.560Z,6.80
2017-09-24T08:36:13.013Z,7.00
2017-09-24T08:38:42.557Z,7.80
2017-09-24T08:41:19.532Z,7.80
2017-09-24T08:43:48.986Z,7.70
2017-09-24T08:46:18.366Z,8.43
2017-09-24T08:48:47.799Z,7.33
2017-09-24T08:51:18.141Z,8.53
2017-09-24T08:53:48.476Z,8.37
2017-09-24T08:56:17.933Z,8.70
2017-09-24T08:58:47.638Z,8.20
2017-09-24T09:01:17.163Z,8.07
2017-09-24T09:03:46.814Z,8.40
2017-09-24T09:06:23.095Z,8.33
2017-09-24T09:08:53.566Z,8.30
2017-09-24T09:11:23.470Z,8.80
2017-09-24T09:13:53.205Z,8.10
2017-09-24T09:16:22.753Z,8.20
2017-09-24T09:18:52.184Z,8.83
2017-09-24T09:21:27.898Z,8.30
2017-09-24T09:23:57.493Z,8.77
2017-09-24T09:26:26.999Z,7.97
2017-09-24T09:28:56.458Z,8.90
2017-09-24T09:31:39.767Z,7.80
2017-09-24T09:34:14.999Z,9.07
2017-09-24T09:36:44.427Z,8.63
2017-09-24T09:39:13.975Z,8.80
2017-09-24T09:41:50.734Z,8.53
2017-09-24T09:44:32.023Z,8.70
2017-09-24T09:47:07.358Z,8.70
2017-09-24T09:49:37.808Z,8.30
2017-09-24T09:52:07.307Z,8.70
2017-09-24T09:54:36.744Z,8.20
2017-09-24T09:57:06.204Z,9.13
2017-09-24T09:59:35.758Z,8.13
2017-09-24T10:02:05.269Z,8.60
2017-09-24T10:04:34.726Z,8.63
2017-09-24T10:07:09.998Z,8.27
2017-09-24T10:09:45.174Z,8.00
2017-09-24T10:12:15.842Z,8.17
2017-09-24T10:14:53.156Z,6.80
2017-09-24T10:17:22.649Z,8.60
2017-09-24T10:20:06.177Z,7.70
2017-09-24T10:22:35.672Z,7.10
2017-09-24T10:25:06.181Z,7.93
2017-09-24T10:27:35.703Z,7.50
2017-09-24T10:30:18.821Z,7.70
2017-09-24T10:32:48.296Z,7.63
2017-09-24T10:35:18.269Z,8.03
2017-09-24T10:37:47.702Z,8.10
2017-09-24T10:40:17.199Z,7.50
2017-09-24T10:42:46.672Z,6.90
2017-09-24T10:45:16.314Z,8.17
2017-09-24T10:47:45.758Z,7.80
2017-09-24T10:50:15.201Z,41.97
2017-09-24T10:52:44.741Z,7.87
2017-09-24T10:55:14.182Z,31.40
2017-09-24T10:57:43.735Z,17.83
2017-09-24T11:00:13.226Z,8.77
2017-09-24T11:02:42.674Z,8.47
2017-09-24T11:05:12.132Z,8.37
2017-09-24T11:07:42.221Z,8.23
2017-09-24T11:10:11.657Z,7.87
2017-09-24T11:12:41.198Z,7.10
2017-09-24T11:15:10.606Z,7.30
2017-09-24T11:17:40.122Z,7.47
2017-09-24T11:20:09.566Z,7.97
2017-09-24T11:22:39.017Z,6.80
2017-09-24T11:25:09.146Z,11.37
2017-09-24T11:27:38.558Z,9.30
2017-09-24T11:30:08.493Z,8.00
2017-09-24T11:32:37.898Z,7.40
2017-09-24T11:35:07.334Z,9.70
2017-09-24T11:37:36.774Z,7.53
2017-09-24T11:40:13.563Z,7.10
2017-09-24T11:42:43.007Z,8.57
2017-09-24T11:45:13.767Z,7.33
2017-09-24T11:47:43.263Z,7.07
2017-09-24T11:50:13.377Z,7.77
2017-09-24T11:52:42.906Z,8.53
2017-09-24T11:55:12.488Z,7.27
2017-09-24T11:57:42.638Z,11.70
2017-09-24T12:00:12.145Z,7.97
2017-09-24T12:02:41.621Z,7.40
2017-09-24T12:05:12.525Z,8.47
2017-09-24T12:07:42.087Z,8.00
2017-09-24T12:10:11.512Z,10.97
2017-09-24T12:12:41.036Z,8.40
2017-09-24T12:15:10.501Z,8.07
2017-09-24T12:17:39.968Z,10.43
2017-09-24T12:20:09.391Z,9.07
2017-09-24T12:22:39.977Z,7.60
2017-09-24T12:25:15.493Z,8.20
2017-09-24T12:27:45.235Z,8.30
2017-09-24T12:30:29.710Z,10.13
2017-09-24T12:32:59.394Z,7.83
2017-09-24T12:35:28.953Z,7.50
2017-09-24T12:38:00.239Z,6.83
2017-09-24T12:40:41.990Z,10.13
2017-09-24T12:43:11.709Z,8.13
2017-09-24T12:45:41.169Z,6.60
2017-09-24T12:48:10.594Z,6.97
2017-09-24T12:50:40.037Z,7.53
2017-09-24T12:53:09.495Z,9.83
2017-09-24T12:55:46.497Z,6.40
2017-09-24T12:58:15.967Z,7.07
2017-09-24T13:00:45.405Z,6.67
2017-09-24T13:03:18.978Z,6.20
2017-09-24T13:05:48.910Z,6.73
2017-09-24T13:08:24.529Z,6.43
2017-09-24T13:10:53.993Z,6.20
2017-09-24T13:13:23.521Z,5.20
2017-09-24T13:15:52.951Z,6.07
2017-09-24T13:18:22.690Z,6.13
2017-09-24T13:20:52.358Z,6.23
2017-09-24T13:23:23.755Z,6.27
2017-09-24T13:25:53.179Z,5.50
2017-09-24T13:28:28.722Z,6.10
2017-09-24T13:31:12.167Z,5.93
2017-09-24T13:33:48.761Z,4.57
2017-09-24T13:36:18.235Z,5.70
2017-09-24T13:38:47.677Z,4.97
2017-09-24T13:41:28.216Z,4.50
2017-09-24T13:43:57.664Z,4.80
2017-09-24T13:46:40.825Z,4.50
2017-09-24T13:49:12.014Z,4.70
2017-09-24T13:51:41.759Z,4.95
2017-09-24T13:54:11.282Z,5.27
2017-09-24T13:56:40.700Z,4.53
2017-09-24T13:59:10.131Z,5.12
2017-09-24T14:01:53.190Z,4.18
2017-09-24T14:04:22.873Z,3.80
2017-09-24T14:06:52.366Z,4.07
2017-09-24T14:09:21.784Z,4.70
2017-09-24T14:11:51.223Z,4.05
2017-09-24T14:14:20.785Z,4.28
2017-09-24T14:16:50.224Z,4.20
2017-09-24T14:19:19.688Z,4.25
2017-09-24T14:21:49.185Z,4.28
2017-09-24T14:24:18.713Z,4.15
2017-09-24T14:26:54.325Z,3.37
2017-09-24T14:29:24.001Z,3.87
2017-09-24T14:31:53.549Z,4.03
2017-09-24T14:34:23.074Z,4.12
2017-09-24T14:37:06.544Z,4.07
2017-09-24T14:39:36.018Z,3.70
2017-09-24T14:42:05.664Z,3.53
2017-09-24T14:44:41.458Z,3.95
2017-09-24T14:47:10.890Z,4.22
2017-09-24T14:49:40.348Z,4.00
2017-09-24T14:52:09.857Z,3.62
2017-09-24T14:54:39.410Z,4.30
2017-09-24T14:57:16.051Z,3.95
2017-09-24T14:59:45.990Z,4.07
2017-09-24T15:02:15.419Z,3.80
2017-09-24T15:04:45.013Z,3.83
2017-09-24T15:07:14.761Z,3.85
2017-09-24T15:09:44.214Z,4.20
2017-09-24T15:12:13.699Z,3.50
2017-09-24T15:14:43.993Z,4.00
2017-09-24T15:17:15.102Z,3.60
2017-09-24T15:19:44.782Z,3.80
2017-09-24T15:22:14.794Z,3.35
2017-09-24T15:24:56.924Z,3.50
2017-09-24T15:27:26.384Z,3.67
2017-09-24T15:29:55.831Z,4.10
2017-09-24T15:32:25.397Z,4.00
2017-09-24T15:34:54.854Z,3.42
2017-09-24T15:37:32.118Z,3.35
2017-09-24T15:40:01.590Z,3.45
2017-09-24T15:42:31.069Z,3.58
2017-09-24T15:45:00.783Z,3.20
2017-09-24T15:47:30.269Z,4.07
2017-09-24T15:49:59.682Z,3.80
2017-09-24T15:52:29.293Z,4.30
2017-09-24T15:54:58.725Z,4.10
2017-09-24T15:57:28.377Z,4.68
2017-09-24T16:00:13.153Z,4.80
2017-09-24T16:02:42.885Z,4.07
2017-09-24T16:05:13.569Z,4.67
2017-09-24T16:07:43.106Z,4.33
2017-09-24T16:10:22.170Z,5.30
2017-09-24T16:12:51.614Z,4.90
2017-09-24T16:15:21.218Z,5.03
2017-09-24T16:18:00.331Z,5.30
2017-09-24T16:20:30.057Z,5.27
2017-09-24T16:23:01.615Z,4.93
2017-09-24T16:25:31.069Z,4.90
2017-09-24T16:28:00.582Z,5.13
2017-09-24T16:30:30.039Z,5.13
2017-09-24T16:33:06.107Z,5.07
2017-09-24T16:35:36.566Z,5.20
2017-09-24T16:38:06.041Z,5.40
2017-09-24T16:40:35.470Z,5.03
2017-09-24T16:43:11.391Z,5.40
2017-09-24T16:45:40.960Z,5.10
2017-09-24T16:48:11.554Z,5.17
2017-09-24T16:50:41.212Z,5.70
2017-09-24T16:53:10.874Z,5.67
2017-09-24T16:55:40.377Z,5.90
2017-09-24T16:58:09.885Z,5.60
2017-09-24T17:00:39.937Z,6.47
2017-09-24T17:03:09.675Z,6.27
2017-09-24T17:05:50.293Z,6.93
2017-09-24T17:08:20.077Z,7.07
2017-09-24T17:10:49.656Z,6.20
2017-09-24T17:13:20.862Z,6.30
2017-09-24T17:15:50.331Z,6.57
2017-09-24T17:18:20.153Z,5.90
2017-09-24T17:20:50.076Z,7.03
2017-09-24T17:23:19.585Z,6.30
2017-09-24T17:25:49.123Z,6.23
2017-09-24T17:28:25.615Z,6.77
2017-09-24T17:30:56.599Z,7.00
2017-09-24T17:33:26.298Z,6.80
2017-09-24T17:35:55.906Z,7.10
2017-09-24T17:38:25.374Z,6.77
2017-09-24T17:41:03.682Z,7.07
2017-09-24T17:43:39.337Z,7.30
2017-09-24T17:46:08.846Z,6.83
2017-09-24T17:48:38.536Z,6.27
2017-09-24T17:51:12.273Z,6.77
2017-09-24T17:53:41.795Z,7.10
2017-09-24T17:56:11.394Z,7.10
2017-09-24T17:58:45.740Z,7.70
2017-09-24T18:01:15.382Z,7.73
2017-09-24T18:03:45.135Z,7.60
2017-09-24T18:06:34.291Z,8.03
2017-09-24T18:09:03.851Z,8.53
2017-09-24T18:11:33.468Z,7.50
2017-09-24T18:14:16.087Z,8.80
2017-09-24T18:16:51.600Z,8.30
2017-09-24T18:19:21.003Z,8.80
2017-09-24T18:21:50.516Z,8.67
2017-09-24T18:24:33.390Z,7.57
2017-09-24T18:27:03.069Z,7.83
2017-09-24T18:29:38.868Z,7.90
2017-09-24T18:32:08.337Z,8.10
2017-09-24T18:34:37.826Z,8.47
2017-09-24T18:37:07.474Z,8.40
2017-09-24T18:39:36.928Z,8.50
2017-09-24T18:42:12.672Z,9.07
2017-09-24T18:44:42.108Z,8.33
2017-09-24T18:47:11.642Z,8.83
2017-09-24T18:49:41.237Z,8.13
2017-09-24T18:52:10.718Z,8.80
2017-09-24T18:54:40.497Z,8.33
2017-09-24T18:57:09.950Z,8.50
2017-09-24T18:59:39.408Z,8.67
2017-09-24T19:02:10.513Z,8.63
2017-09-24T19:04:40.121Z,8.57
2017-09-24T19:07:17.388Z,8.87
2017-09-24T19:09:47.096Z,10.03
2017-09-24T19:12:16.551Z,8.87
2017-09-24T19:14:46.451Z,10.23
2017-09-24T19:17:15.943Z,9.50
2017-09-24T19:19:45.398Z,10.27
2017-09-24T19:22:16.832Z,8.77
2017-09-24T19:24:46.573Z,9.70
2017-09-24T19:27:16.046Z,10.20
2017-09-24T19:29:45.625Z,10.13
2017-09-24T19:32:15.282Z,9.87
2017-09-24T19:34:44.719Z,11.27
2017-09-24T19:37:14.136Z,10.40
2017-09-24T19:39:43.538Z,10.30
2017-09-24T19:42:13.192Z,10.67
2017-09-24T19:44:42.707Z,10.63
2017-09-24T19:47:12.141Z,12.47
2017-09-24T19:49:55.016Z,11.17
2017-09-24T19:52:24.578Z,11.90
2017-09-24T19:54:54.082Z,10.40
2017-09-24T19:57:24.013Z,9.73
2017-09-24T19:59:53.505Z,9.83
2017-09-24T20:02:23.067Z,11.20
2017-09-24T20:04:59.607Z,10.90
2017-09-24T20:07:29.153Z,10.70
2017-09-24T20:09:58.690Z,10.23
2017-09-24T20:12:28.902Z,10.40
2017-09-24T20:15:10.836Z,10.73
2017-09-24T20:17:40.570Z,11.70
2017-09-24T20:20:10.147Z,11.30
2017-09-24T20:22:41.601Z,11.00
2017-09-24T20:25:11.529Z,11.00
2017-09-24T20:27:41.011Z,11.43
2017-09-24T20:30:10.625Z,11.77
2017-09-24T20:32:40.074Z,12.80
2017-09-24T20:35:09.722Z,12.70
2017-09-24T20:37:39.225Z,11.60
2017-09-24T20:40:08.876Z,12.27
2017-09-24T20:42:38.674Z,12.33
2017-09-24T20:45:23.125Z,12.47
2017-09-24T20:47:52.558Z,13.13
2017-09-24T20:50:21.980Z,12.70
2017-09-24T20:52:51.911Z,12.63
2017-09-24T20:55:35.846Z,12.93
2017-09-24T20:58:05.364Z,12.10
2017-09-24T21:00:34.830Z,13.07
2017-09-24T21:03:07.465Z,12.47
2017-09-24T21:05:36.971Z,12.57
2017-09-24T21:08:06.561Z,12.10
2017-09-24T21:10:43.806Z,12.03
2017-09-24T21:13:13.334Z,12.80
2017-09-24T21:15:42.746Z,12.80
2017-09-24T21:18:12.205Z,13.13
2017-09-24T21:20:56.484Z,12.27
2017-09-24T21:23:26.587Z,12.40
2017-09-24T21:25:55.993Z,13.70
2017-09-24T21:28:26.131Z,11.60
2017-09-24T21:31:04.018Z,12.17
2017-09-24T21:33:33.600Z,12.93
2017-09-24T21:36:03.369Z,13.80
2017-09-24T21:38:44.762Z,12.90
2017-09-24T21:41:19.517Z,13.37
2017-09-24T21:43:49.194Z,13.67
2017-09-24T21:46:18.594Z,13.37
2017-09-24T21:48:54.853Z,13.03
2017-09-24T21:51:24.338Z,13.13
2017-09-24T21:53:54.021Z,14.77
2017-09-24T21:56:23.485Z,15.50
2017-09-24T21:58:53.062Z,15.20
2017-09-24T22:01:22.622Z,15.73
2017-09-24T22:03:52.232Z,14.50
2017-09-24T22:06:21.664Z,14.77
2017-09-24T22:08:54.495Z,15.13
2017-09-24T22:11:23.920Z,15.00
2017-09-24T22:13:56.936Z,15.20
2017-09-24T22:16:31.773Z,14.50
2017-09-24T22:19:01.209Z,16.40
2017-09-24T22:21:30.614Z,16.40
2017-09-24T22:24:00.057Z,15.80
2017-09-24T22:26:29.473Z,14.87
2017-09-24T22:28:58.928Z,15.10
2017-09-24T22:31:28.378Z,15.57
2017-09-24T22:33:57.857Z,15.83
2017-09-24T22:36:27.293Z,17.27
2017-09-24T22:38:56.770Z,15.40
2017-09-24T22:41:26.218Z,17.27
2017-09-24T22:43:55.666Z,16.87
2017-09-24T22:46:31.117Z,16.10
2017-09-24T22:49:00.568Z,16.63
2017-09-24T22:51:29.977Z,14.73
2017-09-24T22:53:59.356Z,17.00
2017-09-24T22:56:29.002Z,18.00
2017-09-24T22:58:58.444Z,15.97
2017-09-24T23:01:27.882Z,17.00
2017-09-24T23:03:57.361Z,16.37
2017-09-24T23:06:26.826Z,16.17
2017-09-24T23:08:56.389Z,16.23
2017-09-24T23:11:25.858Z,14.97
2017-09-24T23:13:55.330Z,15.80
2017-09-24T23:16:24.733Z,15.93
2017-09-24T23:18:54.182Z,14.30
2017-09-24T23:21:30.685Z,14.80
2017-09-24T23:24:00.100Z,14.93
2017-09-24T23:26:37.430Z,14.43
2017-09-24T23:29:06.946Z,14.93
2017-09-24T23:31:48.344Z,14.47
2017-09-24T23:34:17.772Z,13.40
2017-09-24T23:36:47.199Z,14.50
2017-09-24T23:39:24.437Z,14.23
2017-09-24T23:41:54.573Z,14.13
2017-09-24T23:44:24.007Z,13.43
2017-09-24T23:46:53.413Z,14.10
2017-09-24T23:49:34.902Z,14.53
2017-09-24T23:52:05.924Z,12.90
2017-09-24T23:54:49.790Z,13.60
2017-09-24T23:57:19.261Z,14.57
2017-09-24T23:59:48.694Z,14.00
